Time;durP1;ratioP1;P1;durP2;ratioP2;P2;SDS_P1;SDS_P2;PMS_P1;PMS_P2;Temp;Humidity;BMP_temperature;BMP_pressure;BME280_temperature;BME280_humidity;BME280_pressure;Samples;Min_cycle;Max_cycle;Signal;HPM_P1;HPM_P2
2022/12/31 00:01:36;;;;;;;10.25;6.10;;;;;;;;;;5010774;28;20045;-67
2022/12/31 00:04:02;;;;;;;10.95;6.60;;;;;;;;;;5009301;28;20105;-67
2022/12/31 00:06:28;;;;;;;12.70;6.50;;;;;;;;;;5010925;28;20108;-67
2022/12/31 00:08:55;;;;;;;11.05;6.20;;;;;;;;;;5010168;28;20477;-67
2022/12/31 00:11:21;;;;;;;9.38;6.05;;;;;;;;;;5034154;28;20048;-67
2022/12/31 00:13:48;;;;;;;10.80;6.07;;;;;;;;;;5050356;28;20044;-67
2022/12/31 00:16:19;;;;;;;8.45;5.90;;;;;;;;;;5048738;28;20047;-67
2022/12/31 00:18:46;;;;;;;7.85;5.53;;;;;;;;;;5048663;28;20506;-67
2022/12/31 00:21:12;;;;;;;11.30;6.15;;;;;;;;;;5048702;28;20053;-67
2022/12/31 00:23:38;;;;;;;10.88;5.95;;;;;;;;;;5049553;28;20422;-67
2022/12/31 00:26:09;;;;;;;12.77;7.00;;;;;;;;;;5040201;28;20076;-67
2022/12/31 00:28:35;;;;;;;14.00;6.68;;;;;;;;;;5030107;28;20041;-67
2022/12/31 00:31:06;;;;;;;13.38;7.18;;;;;;;;;;5029975;28;20041;-67
2022/12/31 00:33:32;;;;;;;13.68;7.18;;;;;;;;;;5028368;28;20041;-67
2022/12/31 00:36:05;;;;;;;16.73;7.18;;;;;;;;;;5028401;28;20404;-67
2022/12/31 00:38:31;;;;;;;11.65;6.78;;;;;;;;;;5028401;28;20435;-67
2022/12/31 00:40:57;;;;;;;13.50;6.45;;;;;;;;;;5028276;28;20301;-67
2022/12/31 00:43:23;;;;;;;12.85;6.95;;;;;;;;;;5028601;28;20488;-67
2022/12/31 00:45:49;;;;;;;14.60;6.80;;;;;;;;;;5029834;28;20061;-67
2022/12/31 00:48:15;;;;;;;11.32;7.30;;;;;;;;;;5029805;28;20121;-67
2022/12/31 00:50:41;;;;;;;15.80;7.32;;;;;;;;;;5029576;28;20566;-67
2022/12/31 00:53:07;;;;;;;12.05;7.50;;;;;;;;;;5027836;28;20118;-67
2022/12/31 00:55:33;;;;;;;27.67;11.07;;;;;;;;;;5028268;28;20045;-67
2022/12/31 00:57:58;;;;;;;15.35;9.20;;;;;;;;;;5030019;28;20262;-67
2022/12/31 01:00:24;;;;;;;11.82;6.63;;;;;;;;;;5011095;28;20049;-67
2022/12/31 01:02:50;;;;;;;12.68;6.95;;;;;;;;;;5027917;28;20458;-67
2022/12/31 01:05:16;;;;;;;12.57;6.72;;;;;;;;;;5029292;28;20048;-67
2022/12/31 01:07:42;;;;;;;17.58;7.10;;;;;;;;;;5029244;28;20045;-67
2022/12/31 01:10:09;;;;;;;11.98;6.45;;;;;;;;;;5029667;28;20292;-67
2022/12/31 01:12:35;;;;;;;12.50;6.30;;;;;;;;;;5047710;28;20126;-67
2022/12/31 01:15:00;;;;;;;11.68;6.75;;;;;;;;;;5047732;28;20040;-67
2022/12/31 01:17:27;;;;;;;10.52;6.90;;;;;;;;;;5049404;28;20037;-67
2022/12/31 01:19:53;;;;;;;14.82;6.15;;;;;;;;;;5047749;28;20041;-67
2022/12/31 01:22:18;;;;;;;11.82;6.15;;;;;;;;;;5047509;28;20065;-68
2022/12/31 01:24:44;;;;;;;9.18;6.25;;;;;;;;;;5048885;28;20368;-68
2022/12/31 01:27:10;;;;;;;11.82;6.00;;;;;;;;;;5029964;28;20469;-67
2022/12/31 01:29:36;;;;;;;14.15;5.80;;;;;;;;;;5027924;28;20153;-67
2022/12/31 01:32:02;;;;;;;12.38;5.88;;;;;;;;;;5027310;28;20050;-67
2022/12/31 01:34:28;;;;;;;12.25;6.05;;;;;;;;;;5027594;28;20424;-67
2022/12/31 01:36:54;;;;;;;9.77;5.63;;;;;;;;;;5028986;28;20052;-67
2022/12/31 01:39:20;;;;;;;10.65;5.43;;;;;;;;;;5027108;28;20048;-67
2022/12/31 01:41:47;;;;;;;12.63;5.40;;;;;;;;;;5027304;28;20041;-67
2022/12/31 01:44:12;;;;;;;12.50;6.05;;;;;;;;;;5028993;28;20075;-67
2022/12/31 01:46:38;;;;;;;9.90;5.47;;;;;;;;;;5026991;28;20318;-67
2022/12/31 01:49:31;;;;;;;10.48;4.93;;;;;;;;;;5029003;28;20404;-67
2022/12/31 01:52:02;;;;;;;11.07;5.28;;;;;;;;;;5026273;28;20084;-67
2022/12/31 01:54:29;;;;;;;10.57;5.03;;;;;;;;;;5028988;28;20477;-67
2022/12/31 01:56:56;;;;;;;8.88;4.93;;;;;;;;;;5010817;28;20420;-67
2022/12/31 01:59:23;;;;;;;9.05;4.97;;;;;;;;;;5028545;28;20040;-67
2022/12/31 02:01:51;;;;;;;10.43;4.78;;;;;;;;;;5010701;28;20068;-67
2022/12/31 02:04:18;;;;;;;10.38;4.50;;;;;;;;;;5027307;28;20076;-67
2022/12/31 02:06:47;;;;;;;9.75;4.55;;;;;;;;;;5026813;28;20061;-67
2022/12/31 02:09:14;;;;;;;13.43;5.20;;;;;;;;;;5028753;28;20046;-67
2022/12/31 02:11:40;;;;;;;7.57;4.00;;;;;;;;;;5041850;28;20483;-67
2022/12/31 02:14:11;;;;;;;11.52;4.32;;;;;;;;;;5046869;28;20045;-67
2022/12/31 02:16:57;;;;;;;11.40;4.45;;;;;;;;;;5030575;28;20045;-67
2022/12/31 02:19:42;;;;;;;6.07;4.25;;;;;;;;;;5036769;28;20044;-67
2022/12/31 02:22:27;;;;;;;6.65;4.00;;;;;;;;;;5046312;28;20490;-67
2022/12/31 02:25:21;;;;;;;8.98;4.15;;;;;;;;;;5047415;28;20240;-67
2022/12/31 02:28:06;;;;;;;8.40;4.05;;;;;;;;;;4991354;28;20084;-67
2022/12/31 02:30:32;;;;;;;8.38;3.75;;;;;;;;;;5008584;28;20072;-67
2022/12/31 02:33:03;;;;;;;5.68;3.70;;;;;;;;;;5008331;28;20165;-67
2022/12/31 02:35:41;;;;;;;6.37;3.50;;;;;;;;;;5011083;28;20128;-67
2022/12/31 02:38:13;;;;;;;7.80;3.20;;;;;;;;;;5010729;28;20049;-67
2022/12/31 02:40:39;;;;;;;9.73;3.67;;;;;;;;;;5010931;28;20429;-67
2022/12/31 02:43:06;;;;;;;7.20;3.03;;;;;;;;;;5011028;28;20050;-67
2022/12/31 02:45:35;;;;;;;5.07;2.33;;;;;;;;;;5010453;28;20096;-67
2022/12/31 02:48:17;;;;;;;3.90;1.60;;;;;;;;;;5010967;28;20304;-67
2022/12/31 02:50:54;;;;;;;3.28;1.40;;;;;;;;;;5010850;28;20234;-67
2022/12/31 02:53:20;;;;;;;6.88;1.30;;;;;;;;;;5010304;28;20112;-67
2022/12/31 02:55:55;;;;;;;4.22;1.10;;;;;;;;;;5010805;28;20045;-67
2022/12/31 02:58:21;;;;;;;1.95;0.98;;;;;;;;;;5011089;28;20121;-67
2022/12/31 03:03:37;;;;;;;2.95;0.90;;;;;;;;;;5027076;28;20058;-67
2022/12/31 03:06:04;;;;;;;3.67;0.70;;;;;;;;;;5010141;28;20129;-67
2022/12/31 03:08:29;;;;;;;2.45;0.90;;;;;;;;;;5010738;28;20042;-67
2022/12/31 03:10:55;;;;;;;2.65;1.00;;;;;;;;;;5039690;28;20037;-67
2022/12/31 03:13:24;;;;;;;2.47;0.90;;;;;;;;;;5050217;28;20502;-67
2022/12/31 03:15:50;;;;;;;4.55;1.15;;;;;;;;;;5050565;28;20073;-67
2022/12/31 03:22:26;;;;;;;2.28;0.80;;;;;;;;;;5050151;28;20044;-67
2022/12/31 03:26:40;;;;;;;2.53;0.80;;;;;;;;;;5036502;28;20049;-67
2022/12/31 03:29:06;;;;;;;4.20;1.00;;;;;;;;;;5029593;28;20393;-67
2022/12/31 03:31:31;;;;;;;1.92;0.98;;;;;;;;;;5031157;28;20076;-67
2022/12/31 03:33:57;;;;;;;4.05;1.40;;;;;;;;;;5030045;28;20044;-67
2022/12/31 03:36:23;;;;;;;4.82;1.40;;;;;;;;;;5030806;28;20416;-67
2022/12/31 03:38:49;;;;;;;4.03;1.45;;;;;;;;;;5029852;28;20041;-67
2022/12/31 03:41:15;;;;;;;6.07;1.67;;;;;;;;;;5031133;28;20041;-67
2022/12/31 03:43:41;;;;;;;5.53;2.00;;;;;;;;;;5029133;28;20484;-67
2022/12/31 03:46:07;;;;;;;6.32;2.20;;;;;;;;;;5029030;28;20045;-67
2022/12/31 03:48:33;;;;;;;9.65;2.25;;;;;;;;;;5029734;28;20053;-67
2022/12/31 03:50:59;;;;;;;4.35;2.13;;;;;;;;;;5028878;28;20057;-67
2022/12/31 03:53:26;;;;;;;4.13;2.15;;;;;;;;;;5029455;28;20069;-67
2022/12/31 03:55:52;;;;;;;6.60;2.42;;;;;;;;;;5029189;28;20227;-67
2022/12/31 03:58:18;;;;;;;7.80;2.55;;;;;;;;;;5028989;28;20582;-67
2022/12/31 04:00:44;;;;;;;6.30;2.50;;;;;;;;;;5028996;28;20042;-67
2022/12/31 04:03:10;;;;;;;7.07;2.72;;;;;;;;;;5029391;28;20041;-67
2022/12/31 04:05:36;;;;;;;6.80;2.88;;;;;;;;;;5028555;28;20045;-67
2022/12/31 04:08:02;;;;;;;6.68;3.13;;;;;;;;;;5029054;28;20099;-67
2022/12/31 04:10:28;;;;;;;6.22;3.70;;;;;;;;;;5033377;28;20056;-67
2022/12/31 04:12:54;;;;;;;7.38;3.58;;;;;;;;;;5048540;28;20045;-67
2022/12/31 04:15:20;;;;;;;12.38;3.60;;;;;;;;;;5032285;28;20075;-67
2022/12/31 04:17:47;;;;;;;7.20;3.35;;;;;;;;;;5050440;28;20061;-67
2022/12/31 04:20:13;;;;;;;5.13;3.00;;;;;;;;;;5048157;28;20122;-67
2022/12/31 04:22:39;;;;;;;5.50;3.15;;;;;;;;;;5032180;28;20053;-67
2022/12/31 04:25:10;;;;;;;7.80;3.25;;;;;;;;;;5048783;28;20067;-67
2022/12/31 04:27:36;;;;;;;7.85;3.50;;;;;;;;;;5029701;28;20132;-67
2022/12/31 04:30:02;;;;;;;12.68;3.50;;;;;;;;;;5029180;28;20072;-67
2022/12/31 04:32:27;;;;;;;7.25;2.75;;;;;;;;;;5028340;28;20068;-67
2022/12/31 04:34:53;;;;;;;8.70;3.40;;;;;;;;;;5028340;28;20037;-67
2022/12/31 04:37:19;;;;;;;9.13;3.10;;;;;;;;;;5028268;28;20385;-67
2022/12/31 04:39:45;;;;;;;5.20;2.53;;;;;;;;;;5012548;28;20064;-67
2022/12/31 04:42:11;;;;;;;4.45;2.40;;;;;;;;;;5027826;28;20080;-67
2022/12/31 04:44:37;;;;;;;4.80;2.47;;;;;;;;;;5030122;28;20547;-67
2022/12/31 04:47:03;;;;;;;10.85;2.78;;;;;;;;;;5028525;28;20072;-67
2022/12/31 04:49:29;;;;;;;5.55;2.60;;;;;;;;;;5028138;28;20131;-67
2022/12/31 04:51:55;;;;;;;8.32;2.20;;;;;;;;;;5028047;28;20511;-67
2022/12/31 04:54:21;;;;;;;4.65;1.80;;;;;;;;;;5028444;28;20128;-67
2022/12/31 04:56:47;;;;;;;4.65;2.00;;;;;;;;;;5028000;28;20038;-67
2022/12/31 04:59:13;;;;;;;6.35;1.90;;;;;;;;;;5029529;28;20475;-67
2022/12/31 05:01:39;;;;;;;5.63;1.90;;;;;;;;;;5027781;28;20188;-67
2022/12/31 05:04:05;;;;;;;8.70;2.90;;;;;;;;;;5029710;28;20044;-67
2022/12/31 05:06:31;;;;;;;7.10;2.72;;;;;;;;;;5027495;28;20080;-67
2022/12/31 05:08:58;;;;;;;9.13;2.88;;;;;;;;;;5027982;28;20064;-67
2022/12/31 05:11:24;;;;;;;7.88;2.50;;;;;;;;;;5040641;28;20041;-67
2022/12/31 05:13:50;;;;;;;10.07;3.40;;;;;;;;;;5048590;28;20051;-67
2022/12/31 05:16:16;;;;;;;7.60;2.97;;;;;;;;;;5047886;28;20407;-67
2022/12/31 05:18:42;;;;;;;10.25;3.28;;;;;;;;;;5047529;28;20044;-67
2022/12/31 05:21:09;;;;;;;9.18;3.35;;;;;;;;;;5047440;28;20044;-67
2022/12/31 05:23:35;;;;;;;7.63;3.35;;;;;;;;;;5047736;28;20041;-67
2022/12/31 05:26:01;;;;;;;7.30;2.88;;;;;;;;;;5039604;28;20045;-67
2022/12/31 05:28:27;;;;;;;9.30;2.83;;;;;;;;;;5028797;28;20045;-67
2022/12/31 05:30:53;;;;;;;5.60;3.10;;;;;;;;;;5029472;28;20508;-67
2022/12/31 05:33:20;;;;;;;7.68;2.90;;;;;;;;;;5027451;28;20053;-67
2022/12/31 05:35:46;;;;;;;7.07;2.80;;;;;;;;;;5028814;28;20264;-67
2022/12/31 05:38:12;;;;;;;8.15;3.10;;;;;;;;;;5027439;28;20041;-67
2022/12/31 05:40:38;;;;;;;7.72;3.30;;;;;;;;;;5029161;28;20037;-67
2022/12/31 05:43:04;;;;;;;6.22;3.35;;;;;;;;;;5028695;28;20098;-67
2022/12/31 05:45:30;;;;;;;8.13;3.75;;;;;;;;;;5027529;28;20041;-67
2022/12/31 05:47:57;;;;;;;6.55;3.63;;;;;;;;;;5028955;28;20048;-67
2022/12/31 05:50:23;;;;;;;6.93;3.45;;;;;;;;;;5027510;28;20052;-67
2022/12/31 05:52:49;;;;;;;4.65;3.70;;;;;;;;;;5027297;28;20045;-67
2022/12/31 05:55:15;;;;;;;7.57;4.00;;;;;;;;;;5010971;28;20079;-67
2022/12/31 05:57:41;;;;;;;7.35;4.57;;;;;;;;;;5026954;28;20537;-67
2022/12/31 06:00:07;;;;;;;6.68;4.70;;;;;;;;;;5027364;28;20037;-67
2022/12/31 06:02:33;;;;;;;9.00;5.07;;;;;;;;;;5027329;28;20056;-67
2022/12/31 06:05:00;;;;;;;7.78;4.05;;;;;;;;;;5027084;28;20045;-67
2022/12/31 06:07:26;;;;;;;5.47;3.60;;;;;;;;;;5027348;28;20095;-67
2022/12/31 06:09:52;;;;;;;8.20;3.75;;;;;;;;;;5032468;28;20041;-67
2022/12/31 06:12:18;;;;;;;5.38;2.95;;;;;;;;;;5050375;28;20045;-67
2022/12/31 06:14:44;;;;;;;3.63;2.50;;;;;;;;;;5050986;28;20037;-67
2022/12/31 06:17:10;;;;;;;4.40;2.63;;;;;;;;;;5051261;28;20056;-67
2022/12/31 06:19:36;;;;;;;5.47;2.78;;;;;;;;;;5050687;28;20053;-67
2022/12/31 06:22:02;;;;;;;3.08;2.30;;;;;;;;;;5050827;28;20053;-67
2022/12/31 06:24:28;;;;;;;4.78;2.92;;;;;;;;;;5034728;28;20502;-67
2022/12/31 06:26:54;;;;;;;4.45;2.55;;;;;;;;;;5035575;28;20041;-67
2022/12/31 06:29:20;;;;;;;5.82;2.83;;;;;;;;;;5030791;28;20053;-67
2022/12/31 06:31:45;;;;;;;4.22;2.88;;;;;;;;;;5032306;28;20484;-67
2022/12/31 06:34:11;;;;;;;3.97;3.03;;;;;;;;;;5030541;28;20049;-67
2022/12/31 06:36:38;;;;;;;6.35;2.63;;;;;;;;;;5030930;28;20051;-67
2022/12/31 06:39:04;;;;;;;5.60;2.80;;;;;;;;;;5032169;28;20042;-67
2022/12/31 06:41:31;;;;;;;5.10;2.53;;;;;;;;;;5030331;28;20103;-67
2022/12/31 06:43:57;;;;;;;6.20;2.88;;;;;;;;;;5032273;28;20542;-67
2022/12/31 06:46:23;;;;;;;3.72;2.60;;;;;;;;;;5031035;28;20056;-67
2022/12/31 06:48:48;;;;;;;5.78;2.50;;;;;;;;;;5031951;28;20046;-67
2022/12/31 06:51:16;;;;;;;3.65;2.33;;;;;;;;;;5031841;28;20128;-67
2022/12/31 06:53:42;;;;;;;3.55;2.40;;;;;;;;;;5031913;28;20155;-67
2022/12/31 06:56:12;;;;;;;6.10;3.08;;;;;;;;;;5030542;28;20539;-67
2022/12/31 06:58:39;;;;;;;4.75;3.42;;;;;;;;;;5030548;28;20041;-67
2022/12/31 07:01:11;;;;;;;3.95;3.22;;;;;;;;;;5014202;28;20041;-67
2022/12/31 07:03:43;;;;;;;4.15;2.47;;;;;;;;;;5030151;28;20049;-67
2022/12/31 07:06:11;;;;;;;4.63;2.50;;;;;;;;;;5030080;28;20045;-67
2022/12/31 07:08:46;;;;;;;2.28;1.90;;;;;;;;;;5030188;28;20049;-67
2022/12/31 07:11:12;;;;;;;2.33;2.08;;;;;;;;;;5040614;28;20071;-67
2022/12/31 07:13:46;;;;;;;2.78;2.00;;;;;;;;;;5050383;28;20534;-67
2022/12/31 07:16:21;;;;;;;3.08;1.90;;;;;;;;;;5050050;28;20033;-67
2022/12/31 07:18:51;;;;;;;2.25;2.05;;;;;;;;;;5050167;28;20040;-67
2022/12/31 07:21:18;;;;;;;3.33;2.50;;;;;;;;;;5049350;28;20123;-67
2022/12/31 07:23:44;;;;;;;4.47;2.90;;;;;;;;;;5033252;28;20075;-67
2022/12/31 07:26:40;;;;;;;4.30;2.72;;;;;;;;;;5040167;28;20084;-67
2022/12/31 07:29:11;;;;;;;4.07;3.00;;;;;;;;;;4962034;28;20370;-67
2022/12/31 07:31:55;;;;;;;4.28;2.95;;;;;;;;;;5029655;28;20100;-67
2022/12/31 07:34:24;;;;;;;4.57;3.10;;;;;;;;;;5029162;28;20076;-67
2022/12/31 07:37:01;;;;;;;4.78;3.00;;;;;;;;;;5029833;28;20045;-67
2022/12/31 07:39:53;;;;;;;3.90;2.75;;;;;;;;;;5029776;28;20089;-67
2022/12/31 07:42:25;;;;;;;4.13;2.72;;;;;;;;;;5027558;28;20510;-67
2022/12/31 07:45:00;;;;;;;3.88;2.67;;;;;;;;;;5013060;28;20046;-67
2022/12/31 07:47:27;;;;;;;3.90;2.45;;;;;;;;;;5029190;28;20128;-66
2022/12/31 07:49:54;;;;;;;5.80;2.30;;;;;;;;;;5030873;28;20124;-66
2022/12/31 07:52:21;;;;;;;3.75;2.35;;;;;;;;;;5029121;28;20104;-66
2022/12/31 07:54:47;;;;;;;3.60;2.08;;;;;;;;;;5029393;28;20132;-66
2022/12/31 07:57:14;;;;;;;2.80;2.10;;;;;;;;;;5030831;28;20037;-66
2022/12/31 07:59:59;;;;;;;2.35;2.10;;;;;;;;;;5029216;28;20038;-66
2022/12/31 08:02:32;;;;;;;4.00;1.90;;;;;;;;;;5012081;28;20081;-66
2022/12/31 08:05:07;;;;;;;2.50;1.83;;;;;;;;;;5029088;28;20053;-66
2022/12/31 08:07:33;;;;;;;2.95;2.08;;;;;;;;;;5012497;28;20041;-66
2022/12/31 08:09:59;;;;;;;3.83;2.75;;;;;;;;;;5029358;28;20092;-66
2022/12/31 08:12:27;;;;;;;4.05;2.40;;;;;;;;;;5050419;28;20038;-66
2022/12/31 08:14:53;;;;;;;3.25;2.58;;;;;;;;;;5032274;28;20044;-66
2022/12/31 08:17:19;;;;;;;5.03;3.13;;;;;;;;;;5048494;28;20033;-66
2022/12/31 08:19:45;;;;;;;4.32;2.88;;;;;;;;;;5048548;28;20475;-66
2022/12/31 08:22:21;;;;;;;5.00;3.47;;;;;;;;;;5048750;28;20301;-66
2022/12/31 08:24:47;;;;;;;5.82;3.65;;;;;;;;;;5032406;28;20040;-66
2022/12/31 08:27:19;;;;;;;4.85;3.50;;;;;;;;;;5031469;28;20052;-66
2022/12/31 08:29:45;;;;;;;6.30;4.05;;;;;;;;;;5028536;28;20080;-67
2022/12/31 08:32:31;;;;;;;6.55;4.13;;;;;;;;;;5011649;28;20088;-67
2022/12/31 08:35:03;;;;;;;5.63;3.58;;;;;;;;;;5028467;28;20309;-67
2022/12/31 08:37:38;;;;;;;5.50;3.63;;;;;;;;;;5028918;28;20037;-67
2022/12/31 08:40:08;;;;;;;4.28;3.55;;;;;;;;;;5028380;28;20365;-67
2022/12/31 08:42:34;;;;;;;8.27;3.92;;;;;;;;;;5029848;28;20048;-67
2022/12/31 08:45:12;;;;;;;7.18;3.92;;;;;;;;;;5028432;28;20045;-66
2022/12/31 08:47:45;;;;;;;6.10;4.43;;;;;;;;;;5029800;28;20120;-66
2022/12/31 08:50:12;;;;;;;5.65;4.00;;;;;;;;;;5028154;28;20049;-66
2022/12/31 08:52:38;;;;;;;5.72;4.18;;;;;;;;;;5028401;28;20060;-66
2022/12/31 08:55:05;;;;;;;6.63;4.50;;;;;;;;;;5027901;28;20520;-66
2022/12/31 08:57:38;;;;;;;5.80;4.18;;;;;;;;;;5011905;28;20041;-66
2022/12/31 09:00:15;;;;;;;6.22;4.47;;;;;;;;;;5028301;28;20480;-66
2022/12/31 09:02:44;;;;;;;5.25;3.70;;;;;;;;;;5010942;28;20043;-66
2022/12/31 09:05:28;;;;;;;4.85;4.30;;;;;;;;;;5028111;28;20136;-67
2022/12/31 09:08:13;;;;;;;5.18;3.65;;;;;;;;;;5029534;28;20441;-67
2022/12/31 09:10:42;;;;;;;5.90;4.03;;;;;;;;;;5033671;28;20047;-67
2022/12/31 09:13:17;;;;;;;5.60;4.00;;;;;;;;;;5047837;28;20048;-67
2022/12/31 09:15:48;;;;;;;6.85;3.65;;;;;;;;;;5047615;28;20067;-67
2022/12/31 09:18:14;;;;;;;4.78;3.00;;;;;;;;;;5047580;28;20086;-67
2022/12/31 09:20:40;;;;;;;3.85;3.13;;;;;;;;;;5047780;28;20048;-67
2022/12/31 09:23:06;;;;;;;4.78;3.22;;;;;;;;;;5049382;28;20045;-67
2022/12/31 09:25:32;;;;;;;4.50;2.58;;;;;;;;;;5043315;28;20033;-67
2022/12/31 09:28:13;;;;;;;5.30;2.80;;;;;;;;;;5011892;28;20041;-67
2022/12/31 09:30:50;;;;;;;3.80;2.53;;;;;;;;;;5027377;28;20053;-67
2022/12/31 09:33:25;;;;;;;4.05;2.10;;;;;;;;;;5027288;28;20403;-67
2022/12/31 09:35:56;;;;;;;3.92;2.15;;;;;;;;;;5027446;28;20095;-67
2022/12/31 09:38:39;;;;;;;4.65;1.60;;;;;;;;;;5027291;28;20037;-67
2022/12/31 09:41:16;;;;;;;6.22;1.75;;;;;;;;;;5027691;28;20039;-67
2022/12/31 09:43:51;;;;;;;2.45;1.40;;;;;;;;;;5027012;28;20438;-67
2022/12/31 09:46:35;;;;;;;4.13;1.77;;;;;;;;;;5027259;28;20041;-67
2022/12/31 09:49:08;;;;;;;2.83;1.38;;;;;;;;;;5027545;28;20060;-67
2022/12/31 09:51:52;;;;;;;2.10;1.60;;;;;;;;;;5027173;28;20408;-67
2022/12/31 09:54:33;;;;;;;3.88;1.70;;;;;;;;;;5028796;28;20464;-67
2022/12/31 09:57:09;;;;;;;4.07;1.60;;;;;;;;;;5027204;28;20037;-67
2022/12/31 09:59:43;;;;;;;2.85;1.60;;;;;;;;;;5029060;28;20046;-67
2022/12/31 10:02:12;;;;;;;1.85;1.35;;;;;;;;;;5027006;28;20041;-67
2022/12/31 10:04:59;;;;;;;3.13;1.35;;;;;;;;;;5029039;28;20049;-67
2022/12/31 10:07:28;;;;;;;2.47;1.20;;;;;;;;;;5028467;28;20045;-67
2022/12/31 10:09:54;;;;;;;6.28;2.55;;;;;;;;;;5028208;28;20049;-67
2022/12/31 10:12:39;;;;;;;2.70;1.40;;;;;;;;;;5008705;28;20309;-67
2022/12/31 10:15:15;;;;;;;2.75;1.10;;;;;;;;;;5007532;28;20261;-67
2022/12/31 10:17:48;;;;;;;1.40;1.30;;;;;;;;;;5008617;28;20128;-67
2022/12/31 10:20:19;;;;;;;2.55;1.10;;;;;;;;;;5023825;28;20412;-67
2022/12/31 10:23:03;;;;;;;5.55;2.20;;;;;;;;;;5008479;28;20083;-67
2022/12/31 10:25:47;;;;;;;2.85;1.27;;;;;;;;;;5012492;28;20065;-67
2022/12/31 10:28:32;;;;;;;3.35;1.30;;;;;;;;;;5027181;28;20045;-67
2022/12/31 10:31:28;;;;;;;1.50;1.00;;;;;;;;;;5028463;28;20338;-67
2022/12/31 10:34:02;;;;;;;4.07;1.25;;;;;;;;;;5028621;28;20068;-67
2022/12/31 10:36:46;;;;;;;2.35;1.20;;;;;;;;;;5026804;28;20049;-67
2022/12/31 10:39:38;;;;;;;3.00;1.08;;;;;;;;;;5029737;28;20635;-67
2022/12/31 10:42:28;;;;;;;6.13;1.40;;;;;;;;;;5026462;28;20049;-67
2022/12/31 10:45:07;;;;;;;4.00;1.40;;;;;;;;;;5028034;28;20076;-67
2022/12/31 10:47:48;;;;;;;6.50;1.80;;;;;;;;;;5028610;28;20042;-67
2022/12/31 10:50:14;;;;;;;5.38;1.30;;;;;;;;;;5027079;28;20133;-67
2022/12/31 10:53:17;;;;;;;6.10;1.50;;;;;;;;;;5027858;28;20475;-67
2022/12/31 10:55:45;;;;;;;8.18;1.90;;;;;;;;;;4990071;28;20050;-67
2022/12/31 10:58:30;;;;;;;2.17;1.42;;;;;;;;;;5020226;28;20053;-67
2022/12/31 11:00:56;;;;;;;4.22;2.28;;;;;;;;;;5029903;28;20053;-67
2022/12/31 11:03:22;;;;;;;9.25;2.40;;;;;;;;;;5032998;28;20053;-67
2022/12/31 11:06:06;;;;;;;5.00;2.10;;;;;;;;;;5033524;28;20050;-67
2022/12/31 11:08:38;;;;;;;6.82;1.85;;;;;;;;;;5030225;28;20179;-67
2022/12/31 11:11:12;;;;;;;8.90;2.70;;;;;;;;;;5030935;28;20033;-67
2022/12/31 11:13:49;;;;;;;4.07;1.55;;;;;;;;;;5050144;28;20052;-67
2022/12/31 11:16:30;;;;;;;4.13;2.00;;;;;;;;;;5050055;28;20543;-67
2022/12/31 11:18:56;;;;;;;5.30;1.92;;;;;;;;;;5050018;28;20045;-67
2022/12/31 11:21:30;;;;;;;7.38;1.80;;;;;;;;;;5049888;28;20078;-67
2022/12/31 11:24:08;;;;;;;13.20;2.00;;;;;;;;;;5051257;28;20033;-67
2022/12/31 11:26:52;;;;;;;5.90;1.67;;;;;;;;;;5037558;28;20049;-67
2022/12/31 11:29:28;;;;;;;8.30;1.92;;;;;;;;;;5030971;28;20052;-67
2022/12/31 11:32:13;;;;;;;6.20;2.10;;;;;;;;;;5031191;28;20076;-67
2022/12/31 11:34:41;;;;;;;7.03;2.22;;;;;;;;;;5031163;28;20047;-67
2022/12/31 11:37:27;;;;;;;6.43;3.15;;;;;;;;;;5030957;28;20029;-67
2022/12/31 11:40:19;;;;;;;7.70;2.55;;;;;;;;;;5030258;28;20045;-67
2022/12/31 11:42:59;;;;;;;8.80;3.10;;;;;;;;;;5029657;28;20048;-67
2022/12/31 11:45:35;;;;;;;4.97;2.42;;;;;;;;;;5030763;28;20045;-67
2022/12/31 11:48:24;;;;;;;7.15;2.35;;;;;;;;;;5030761;28;20175;-67
2022/12/31 11:50:54;;;;;;;6.80;2.72;;;;;;;;;;5031082;28;20492;-68
2022/12/31 11:53:29;;;;;;;9.07;3.90;;;;;;;;;;5030176;28;20128;-67
2022/12/31 11:56:17;;;;;;;7.13;3.70;;;;;;;;;;5029777;28;20095;-67
2022/12/31 11:58:45;;;;;;;6.90;3.03;;;;;;;;;;5031065;28;20045;-67
2022/12/31 12:01:21;;;;;;;7.38;4.47;;;;;;;;;;5031001;28;20404;-67
2022/12/31 12:03:47;;;;;;;9.05;4.00;;;;;;;;;;5030657;28;20450;-67
2022/12/31 12:06:15;;;;;;;11.05;3.50;;;;;;;;;;5029354;28;20400;-67
2022/12/31 12:08:41;;;;;;;7.43;3.90;;;;;;;;;;5030489;28;20083;-67
2022/12/31 12:11:13;;;;;;;7.32;3.90;;;;;;;;;;5040118;28;20055;-67
2022/12/31 12:13:39;;;;;;;8.98;3.50;;;;;;;;;;5050024;28;20353;-67
2022/12/31 12:16:06;;;;;;;6.35;3.50;;;;;;;;;;5025801;28;20376;-67
2022/12/31 12:18:42;;;;;;;5.57;2.88;;;;;;;;;;5028837;28;20045;-67
2022/12/31 12:21:10;;;;;;;6.50;3.05;;;;;;;;;;5029868;28;20130;-67
2022/12/31 12:23:37;;;;;;;6.70;3.60;;;;;;;;;;5030637;28;20323;-67
2022/12/31 12:26:03;;;;;;;7.50;2.30;;;;;;;;;;5028771;28;20050;-67
2022/12/31 12:28:31;;;;;;;5.25;2.55;;;;;;;;;;5029632;28;20041;-67
2022/12/31 12:31:01;;;;;;;8.95;4.07;;;;;;;;;;5029911;28;20045;-67
2022/12/31 12:33:28;;;;;;;5.10;2.58;;;;;;;;;;5029983;28;20033;-67
2022/12/31 12:36:05;;;;;;;8.70;2.58;;;;;;;;;;5029726;28;20414;-67
2022/12/31 12:38:31;;;;;;;6.60;1.88;;;;;;;;;;5012117;28;20068;-67
2022/12/31 12:40:59;;;;;;;5.78;2.80;;;;;;;;;;5028249;28;20496;-67
2022/12/31 12:43:26;;;;;;;5.35;2.60;;;;;;;;;;5029524;28;20156;-67
2022/12/31 12:45:53;;;;;;;10.65;4.30;;;;;;;;;;5030158;28;20556;-67
2022/12/31 12:48:25;;;;;;;8.95;3.42;;;;;;;;;;5028576;28;20041;-67
2022/12/31 12:50:51;;;;;;;3.27;1.80;;;;;;;;;;5029397;28;20041;-67
2022/12/31 12:53:28;;;;;;;4.93;2.10;;;;;;;;;;5029749;28;20440;-67
2022/12/31 12:55:54;;;;;;;4.78;2.30;;;;;;;;;;5028520;28;20061;-67
2022/12/31 12:58:26;;;;;;;4.78;1.60;;;;;;;;;;5029259;28;20543;-67
2022/12/31 13:01:01;;;;;;;5.95;2.38;;;;;;;;;;5029644;28;20057;-67
2022/12/31 13:03:51;;;;;;;4.68;2.10;;;;;;;;;;5029363;28;20115;-67
2022/12/31 13:06:32;;;;;;;8.07;2.60;;;;;;;;;;5027874;28;20041;-67
2022/12/31 13:09:17;;;;;;;6.55;3.17;;;;;;;;;;5029580;28;20467;-67
2022/12/31 13:12:15;;;;;;;6.95;3.03;;;;;;;;;;5043906;28;20139;-67
2022/12/31 13:14:53;;;;;;;6.35;2.33;;;;;;;;;;5036669;28;20282;-67
2022/12/31 13:17:38;;;;;;;9.52;2.63;;;;;;;;;;5048286;28;20037;-67
2022/12/31 13:20:18;;;;;;;5.13;2.80;;;;;;;;;;5047755;28;20071;-67
2022/12/31 13:22:54;;;;;;;6.72;2.75;;;;;;;;;;5047413;28;20149;-67
2022/12/31 13:25:23;;;;;;;6.63;2.20;;;;;;;;;;5035708;28;20052;-67
2022/12/31 13:27:52;;;;;;;5.68;1.88;;;;;;;;;;5028682;28;20049;-67
2022/12/31 13:30:19;;;;;;;3.85;1.75;;;;;;;;;;5029316;28;20124;-67
2022/12/31 13:32:48;;;;;;;5.40;1.77;;;;;;;;;;5028947;28;20121;-67
2022/12/31 13:35:29;;;;;;;7.57;2.10;;;;;;;;;;5028937;28;20595;-67
2022/12/31 13:37:59;;;;;;;12.73;2.10;;;;;;;;;;5027769;28;20490;-67
2022/12/31 13:40:29;;;;;;;7.55;1.60;;;;;;;;;;5027793;28;20219;-67
2022/12/31 13:42:56;;;;;;;10.52;1.83;;;;;;;;;;5027202;28;20535;-67
2022/12/31 13:45:28;;;;;;;10.05;1.98;;;;;;;;;;5029183;28;20049;-66
2022/12/31 13:47:56;;;;;;;7.40;1.58;;;;;;;;;;5028730;28;20081;-66
2022/12/31 13:50:37;;;;;;;3.40;1.50;;;;;;;;;;5028792;28;20041;-66
2022/12/31 13:53:21;;;;;;;9.85;2.47;;;;;;;;;;5027518;28;20365;-67
2022/12/31 13:55:56;;;;;;;5.82;1.73;;;;;;;;;;5029148;28;20036;-67
2022/12/31 13:58:30;;;;;;;4.95;2.13;;;;;;;;;;5028393;28;20048;-67
2022/12/31 14:00:59;;;;;;;7.05;2.20;;;;;;;;;;5028996;28;20083;-67
2022/12/31 14:03:48;;;;;;;6.35;3.00;;;;;;;;;;5027432;28;20491;-67
2022/12/31 14:06:50;;;;;;;8.10;3.95;;;;;;;;;;5028831;28;20099;-67
2022/12/31 14:09:19;;;;;;;5.05;3.67;;;;;;;;;;4986390;28;20064;-67
2022/12/31 14:11:45;;;;;;;6.93;3.75;;;;;;;;;;5036218;28;20411;-67
2022/12/31 14:14:17;;;;;;;4.30;2.25;;;;;;;;;;5048280;28;20032;-67
2022/12/31 14:16:57;;;;;;;3.13;1.60;;;;;;;;;;5048707;28;20087;-67
2022/12/31 14:19:42;;;;;;;3.53;2.35;;;;;;;;;;5047870;28;20635;-67
2022/12/31 14:22:11;;;;;;;7.13;3.72;;;;;;;;;;5048555;28;20124;-67
2022/12/31 14:24:37;;;;;;;4.10;2.30;;;;;;;;;;5040545;28;20041;-67
2022/12/31 14:27:10;;;;;;;2.75;1.92;;;;;;;;;;5028255;28;20052;-67
2022/12/31 14:29:46;;;;;;;3.75;2.10;;;;;;;;;;5029329;28;20516;-67
2022/12/31 14:32:31;;;;;;;3.70;1.50;;;;;;;;;;5032452;28;20510;-67
2022/12/31 14:35:18;;;;;;;2.28;1.70;;;;;;;;;;5032017;28;20400;-67
2022/12/31 14:38:02;;;;;;;2.80;1.95;;;;;;;;;;5014325;28;20052;-67
2022/12/31 14:40:37;;;;;;;3.85;2.42;;;;;;;;;;5031946;28;20042;-67
2022/12/31 14:43:09;;;;;;;5.35;2.95;;;;;;;;;;5031780;28;20065;-67
2022/12/31 14:45:46;;;;;;;8.73;3.22;;;;;;;;;;5032229;28;20045;-67
2022/12/31 14:48:30;;;;;;;14.93;4.85;;;;;;;;;;5032204;28;20045;-67
2022/12/31 14:50:59;;;;;;;8.95;4.25;;;;;;;;;;5032305;28;20064;-67
2022/12/31 14:53:26;;;;;;;6.85;4.68;;;;;;;;;;5032115;28;20117;-67
2022/12/31 14:55:56;;;;;;;9.18;4.70;;;;;;;;;;5032057;28;20061;-67
2022/12/31 14:58:43;;;;;;;9.20;4.72;;;;;;;;;;5031737;28;20041;-67
2022/12/31 15:01:15;;;;;;;12.88;6.00;;;;;;;;;;5031415;28;20057;-67
2022/12/31 15:03:42;;;;;;;14.70;6.25;;;;;;;;;;5031515;28;20056;-67
2022/12/31 15:06:07;;;;;;;10.18;5.70;;;;;;;;;;5031798;28;20088;-67
2022/12/31 15:08:46;;;;;;;13.13;7.13;;;;;;;;;;5031797;28;20084;-67
2022/12/31 15:11:28;;;;;;;13.25;6.80;;;;;;;;;;5032392;28;20074;-67
2022/12/31 15:14:02;;;;;;;13.98;6.82;;;;;;;;;;5051596;28;20441;-67